Time;durP1;ratioP1;P1;durP2;ratioP2;P2;SDS_P1;SDS_P2;PMS_P1;PMS_P2;Temp;Humidity;BMP_temperature;BMP_pressure;BME280_temperature;BME280_humidity;BME280_pressure;Samples;Min_cycle;Max_cycle;Signal;HPM_P1;HPM_P2
2023/06/13 00:01:54;;;;;;;6.47;2.80;;;18.70;88.10;;;;;;5048969;28;20056;-87
2023/06/13 00:04:43;;;;;;;10.38;3.92;;;18.70;88.60;;;;;;5049461;28;20053;-81
2023/06/13 00:07:31;;;;;;;7.30;3.30;;;18.70;88.60;;;;;;5049204;28;20087;-81
2023/06/13 00:10:18;;;;;;;9.45;3.10;;;18.70;88.60;;;;;;5049195;28;20048;-82
2023/06/13 00:13:04;;;;;;;9.90;3.22;;;18.60;88.80;;;;;;5050237;28;20053;-80
2023/06/13 00:15:56;;;;;;;6.25;3.00;;;18.60;89.00;;;;;;5032762;28;20064;-84
2023/06/13 00:18:43;;;;;;;7.13;2.90;;;18.60;89.30;;;;;;5031251;28;20053;-83
2023/06/13 00:21:29;;;;;;;10.05;2.88;;;18.50;89.40;;;;;;5048807;28;20059;-81
2023/06/13 00:24:15;;;;;;;11.88;3.55;;;18.40;89.60;;;;;;5031966;28;20045;-80
2023/06/13 00:27:01;;;;;;;8.18;2.80;;;18.40;89.60;;;;;;5032539;28;20110;-80
2023/06/13 00:29:47;;;;;;;7.93;3.08;;;18.40;89.80;;;;;;5032892;28;20064;-81
2023/06/13 00:32:33;;;;;;;7.25;2.88;;;18.30;90.00;;;;;;5031521;28;20084;-81
2023/06/13 00:35:19;;;;;;;7.10;2.75;;;18.30;90.10;;;;;;5050508;28;20107;-83
2023/06/13 00:38:07;;;;;;;10.18;3.50;;;18.20;90.10;;;;;;5031402;28;20807;-80
2023/06/13 00:40:52;;;;;;;11.02;3.25;;;18.20;90.30;;;;;;5032669;28;20049;-81
2023/06/13 00:43:39;;;;;;;7.65;3.60;;;18.10;90.30;;;;;;5050101;28;20091;-82
2023/06/13 00:46:34;;;;;;;7.22;3.00;;;18.10;90.50;;;;;;5048553;28;20805;-89
2023/06/13 00:49:20;;;;;;;5.63;2.40;;;18.00;90.70;;;;;;5048258;28;20195;-83
2023/06/13 00:52:08;;;;;;;7.00;3.08;;;17.90;90.70;;;;;;5049130;28;20060;-81
2023/06/13 00:54:54;;;;;;;9.00;3.25;;;17.90;90.70;;;;;;5048349;28;20049;-90
2023/06/13 00:57:40;;;;;;;8.25;3.03;;;17.80;90.70;;;;;;5018767;28;20052;-84
2023/06/13 01:00:26;;;;;;;8.75;3.00;;;17.80;90.80;;;;;;5051715;28;20397;-84
2023/06/13 01:03:15;;;;;;;5.80;2.78;;;17.70;90.90;;;;;;5050077;28;20053;-81
2023/06/13 01:06:01;;;;;;;6.38;2.97;;;17.60;90.90;;;;;;5050659;28;20045;-83
2023/06/13 01:08:47;;;;;;;7.07;2.80;;;17.60;90.90;;;;;;5048355;28;20049;-81
2023/06/13 01:11:36;;;;;;;5.63;3.03;;;17.60;91.10;;;;;;5049369;28;20088;-81
2023/06/13 01:14:41;;;;;;;6.07;3.03;;;17.50;91.10;;;;;;5049258;28;20064;-81
2023/06/13 01:17:34;;;;;;;8.35;2.78;;;17.50;91.00;;;;;;5050354;28;20045;-82
2023/06/13 01:20:21;;;;;;;11.15;3.63;;;17.40;91.10;;;;;;5034212;28;20067;-82
2023/06/13 01:23:16;;;;;;;8.48;2.70;;;17.40;91.30;;;;;;5052142;28;20057;-80
2023/06/13 01:26:39;;;;;;;10.60;3.17;;;17.20;91.30;;;;;;5053301;28;20072;-82
2023/06/13 01:29:27;;;;;;;8.00;3.15;;;17.10;91.50;;;;;;5052490;28;20052;-81
2023/06/13 01:32:15;;;;;;;5.43;2.78;;;17.10;91.50;;;;;;5053104;28;20064;-84
2023/06/13 01:35:02;;;;;;;7.82;3.15;;;17.00;91.70;;;;;;5037506;28;20052;-91
2023/06/13 01:37:49;;;;;;;8.45;3.60;;;16.90;91.90;;;;;;5051992;28;20048;-90
2023/06/13 01:40:35;;;;;;;5.28;2.60;;;16.70;92.10;;;;;;5051791;28;20053;-85
2023/06/13 01:43:21;;;;;;;10.77;3.50;;;16.70;92.20;;;;;;5035400;28;20053;-83
2023/06/13 01:46:27;;;;;;;8.55;3.20;;;16.60;92.50;;;;;;5052559;28;20045;-81
2023/06/13 01:49:26;;;;;;;9.80;3.65;;;16.50;93.00;;;;;;5036466;28;20045;-85
2023/06/13 01:52:19;;;;;;;9.65;3.65;;;16.40;92.90;;;;;;5051469;28;20049;-81
2023/06/13 01:55:14;;;;;;;6.47;3.03;;;16.30;93.20;;;;;;5035280;28;20068;-85
2023/06/13 01:58:10;;;;;;;9.13;3.63;;;16.30;93.60;;;;;;5035065;28;20136;-83
2023/06/13 02:01:00;;;;;;;9.52;3.22;;;16.20;93.70;;;;;;5051301;28;20063;-82
2023/06/13 02:03:47;;;;;;;6.38;3.08;;;16.10;93.90;;;;;;5051243;28;20041;-81
2023/06/13 02:06:32;;;;;;;9.02;3.80;;;16.10;94.00;;;;;;5052506;28;20049;-86
2023/06/13 02:09:18;;;;;;;5.90;3.22;;;16.00;94.20;;;;;;5052431;28;20095;-81
2023/06/13 02:12:06;;;;;;;9.18;3.75;;;16.00;94.30;;;;;;5052393;28;20413;-80
2023/06/13 02:14:53;;;;;;;11.02;3.55;;;15.90;94.40;;;;;;5051314;28;20511;-80
2023/06/13 02:17:40;;;;;;;9.30;3.80;;;15.90;94.40;;;;;;5051621;28;20065;-79
2023/06/13 02:20:26;;;;;;;8.30;3.58;;;15.90;94.40;;;;;;5034670;28;20060;-80
2023/06/13 02:23:12;;;;;;;6.63;3.30;;;15.80;94.40;;;;;;5052392;28;20061;-79
2023/06/13 02:25:58;;;;;;;6.95;3.25;;;15.80;94.50;;;;;;5055462;28;20057;-79
2023/06/13 02:28:45;;;;;;;6.25;3.60;;;15.80;94.50;;;;;;5053594;28;20464;-79
2023/06/13 02:31:35;;;;;;;7.28;3.28;;;15.80;94.50;;;;;;5049999;28;20041;-80
2023/06/13 02:34:21;;;;;;;8.10;3.92;;;15.70;94.60;;;;;;5060750;28;20159;-77
2023/06/13 02:37:08;;;;;;;6.50;3.92;;;15.70;94.90;;;;;;5051932;28;20072;-78
2023/06/13 02:39:54;;;;;;;7.25;3.42;;;15.60;95.00;;;;;;5051014;28;20048;-78
2023/06/13 02:42:40;;;;;;;8.90;3.95;;;15.60;95.10;;;;;;5053671;28;20094;-85
2023/06/13 02:45:26;;;;;;;8.35;3.20;;;15.50;95.20;;;;;;5051936;28;20053;-83
2023/06/13 02:48:12;;;;;;;6.53;3.20;;;15.50;95.30;;;;;;5034436;28;20061;-81
2023/06/13 02:50:58;;;;;;;10.75;4.40;;;15.40;95.20;;;;;;5023840;28;20059;-88
2023/06/13 02:53:44;;;;;;;6.53;3.55;;;15.40;95.40;;;;;;5051043;28;20056;-85
2023/06/13 02:56:30;;;;;;;6.32;3.33;;;15.30;95.40;;;;;;5055005;28;20060;-85
2023/06/13 02:59:17;;;;;;;6.78;3.50;;;15.30;95.40;;;;;;5057115;28;20045;-83
2023/06/13 03:02:03;;;;;;;8.23;3.97;;;15.30;95.40;;;;;;5055043;28;20052;-82
2023/06/13 03:04:49;;;;;;;5.63;3.03;;;15.30;95.30;;;;;;5051607;28;20048;-84
2023/06/13 03:07:35;;;;;;;9.63;3.42;;;15.20;95.30;;;;;;5021049;28;20057;-87
2023/06/13 03:10:21;;;;;;;7.40;3.35;;;15.20;95.20;;;;;;5034578;28;20060;-80
2023/06/13 03:13:07;;;;;;;6.85;3.92;;;15.20;95.10;;;;;;5051742;28;20393;-81
2023/06/13 03:15:56;;;;;;;7.03;3.78;;;15.10;95.20;;;;;;5051171;28;20136;-79
2023/06/13 03:18:42;;;;;;;8.63;3.38;;;15.10;95.10;;;;;;5049666;28;20417;-81
2023/06/13 03:21:30;;;;;;;7.82;3.72;;;15.10;95.10;;;;;;5032915;28;20409;-80
2023/06/13 03:24:16;;;;;;;11.05;4.15;;;15.10;95.20;;;;;;5035468;28;20049;-86
2023/06/13 03:27:03;;;;;;;10.02;3.67;;;15.10;95.20;;;;;;5032254;28;20086;-84
2023/06/13 03:29:49;;;;;;;5.88;3.53;;;15.10;95.30;;;;;;5049717;28;20040;-82
2023/06/13 03:32:36;;;;;;;7.72;3.85;;;15.10;95.70;;;;;;5049668;28;20049;-87
2023/06/13 03:35:22;;;;;;;7.03;3.60;;;15.10;95.80;;;;;;5034453;28;20404;-80
2023/06/13 03:38:08;;;;;;;6.38;3.33;;;15.10;95.90;;;;;;5050461;28;20049;-81
2023/06/13 03:40:54;;;;;;;12.25;3.97;;;15.10;96.00;;;;;;5049246;28;20049;-79
2023/06/13 03:43:40;;;;;;;9.40;3.83;;;15.10;96.20;;;;;;5031834;28;20083;-82
2023/06/13 03:46:26;;;;;;;8.98;3.28;;;15.10;96.40;;;;;;5050642;28;20124;-82
2023/06/13 03:49:12;;;;;;;9.35;3.70;;;15.10;96.40;;;;;;5019369;28;20053;-81
2023/06/13 03:51:58;;;;;;;11.32;4.15;;;15.10;96.50;;;;;;5049676;28;20454;-81
2023/06/13 03:54:44;;;;;;;10.48;3.78;;;15.10;96.50;;;;;;5049629;28;20053;-84
2023/06/13 03:57:31;;;;;;;7.82;3.78;;;15.20;96.20;;;;;;5052098;28;20549;-79
2023/06/13 04:00:18;;;;;;;6.82;3.42;;;15.20;95.90;;;;;;5053741;28;20048;-79
2023/06/13 04:03:04;;;;;;;9.55;4.18;;;15.20;95.70;;;;;;5054402;28;20067;-80
2023/06/13 04:05:50;;;;;;;8.02;3.95;;;15.30;95.40;;;;;;5038786;28;20057;-79
2023/06/13 04:08:38;;;;;;;8.68;3.88;;;15.30;95.30;;;;;;5051001;28;20131;-82
2023/06/13 04:11:25;;;;;;;9.05;3.22;;;15.30;95.10;;;;;;5049569;28;20060;-80
2023/06/13 04:14:11;;;;;;;13.05;4.30;;;15.30;95.10;;;;;;5031964;28;20518;-81
2023/06/13 04:16:59;;;;;;;10.85;4.03;;;15.40;94.90;;;;;;5033270;28;20094;-83
2023/06/13 04:19:45;;;;;;;6.40;3.22;;;15.40;94.60;;;;;;5049916;28;20049;-81
2023/06/13 04:22:32;;;;;;;7.72;3.65;;;15.40;94.60;;;;;;5031751;28;20057;-81
2023/06/13 04:25:18;;;;;;;8.90;3.72;;;15.50;94.50;;;;;;5049837;28;20464;-85
2023/06/13 04:28:04;;;;;;;6.97;3.60;;;15.60;94.40;;;;;;5049921;28;20068;-83
2023/06/13 04:30:51;;;;;;;7.60;3.47;;;15.70;94.40;;;;;;5032932;28;20091;-82
2023/06/13 04:33:39;;;;;;;11.27;3.67;;;15.70;94.30;;;;;;5017584;28;20143;-83
2023/06/13 04:36:28;;;;;;;5.70;3.38;;;15.80;94.40;;;;;;5034416;28;20831;-82
2023/06/13 04:39:14;;;;;;;6.68;3.20;;;15.80;94.30;;;;;;5048809;28;20060;-83
2023/06/13 04:42:01;;;;;;;6.05;3.25;;;15.90;94.10;;;;;;5049358;28;20048;-80
2023/06/13 04:44:48;;;;;;;9.93;3.25;;;16.00;93.90;;;;;;5048356;28;20060;-82
2023/06/13 04:47:34;;;;;;;6.82;3.03;;;16.10;93.70;;;;;;5034319;28;20408;-81
2023/06/13 04:50:21;;;;;;;5.70;2.78;;;16.10;93.40;;;;;;5048598;28;20053;-84
2023/06/13 04:53:11;;;;;;;5.22;3.00;;;16.20;93.00;;;;;;5050743;28;20052;-81
2023/06/13 04:55:58;;;;;;;7.78;3.80;;;16.30;93.00;;;;;;5052673;28;20045;-83
2023/06/13 04:58:43;;;;;;;10.40;3.40;;;16.40;92.90;;;;;;5052578;28;20052;-81
2023/06/13 05:01:32;;;;;;;6.43;2.85;;;16.50;92.60;;;;;;5055191;28;20095;-82
2023/06/13 05:04:19;;;;;;;7.00;3.42;;;16.60;92.30;;;;;;5053606;28;20055;-86
2023/06/13 05:07:06;;;;;;;7.38;3.08;;;16.70;92.10;;;;;;5052201;28;20060;-82
2023/06/13 05:09:52;;;;;;;8.10;3.35;;;16.70;92.00;;;;;;5035688;28;20057;-84
2023/06/13 05:12:38;;;;;;;7.07;3.28;;;16.80;91.80;;;;;;5053835;28;20056;-89
2023/06/13 05:15:24;;;;;;;8.60;3.03;;;16.90;91.70;;;;;;5052815;28;20527;-87
2023/06/13 05:18:12;;;;;;;5.43;2.65;;;17.00;91.50;;;;;;5035920;28;20057;-85
2023/06/13 05:20:59;;;;;;;6.82;2.88;;;17.10;91.40;;;;;;5053821;28;20061;-90
2023/06/13 05:23:48;;;;;;;8.32;3.10;;;17.30;91.20;;;;;;5052038;28;20065;-88
2023/06/13 05:26:34;;;;;;;14.90;4.05;;;17.40;90.80;;;;;;5051923;28;20404;-85
2023/06/13 05:29:20;;;;;;;6.38;2.78;;;17.50;90.60;;;;;;5052567;28;20115;-84
2023/06/13 05:32:07;;;;;;;6.10;3.20;;;17.60;90.20;;;;;;5053132;28;20063;-84
2023/06/13 05:34:53;;;;;;;4.78;2.85;;;17.70;89.10;;;;;;5052256;28;20123;-83
2023/06/13 05:37:39;;;;;;;7.15;2.80;;;17.80;88.30;;;;;;5052819;28;20056;-83
2023/06/13 05:40:25;;;;;;;6.00;2.97;;;17.90;88.20;;;;;;5052580;28;20049;-86
2023/06/13 05:43:12;;;;;;;7.60;2.90;;;18.10;88.50;;;;;;5052468;28;20103;-80
2023/06/13 05:45:59;;;;;;;7.18;2.92;;;18.20;88.10;;;;;;5033976;28;20096;-81
2023/06/13 05:48:45;;;;;;;4.97;2.83;;;18.40;87.00;;;;;;5052859;28;20056;-85
2023/06/13 05:51:32;;;;;;;5.40;2.83;;;18.50;85.50;;;;;;5051290;28;20508;-81
2023/06/13 05:54:18;;;;;;;5.85;2.80;;;18.70;84.50;;;;;;5037308;28;20512;-82
2023/06/13 05:57:05;;;;;;;8.05;2.65;;;18.80;83.90;;;;;;5051824;28;20128;-81
2023/06/13 05:59:51;;;;;;;5.97;2.60;;;19.00;82.50;;;;;;5037626;28;20055;-87
2023/06/13 06:02:37;;;;;;;6.90;2.85;;;19.10;81.60;;;;;;5052019;28;20470;-87
2023/06/13 06:05:24;;;;;;;6.78;2.30;;;19.30;81.90;;;;;;5052472;28;20509;-89
2023/06/13 06:08:11;;;;;;;5.43;2.40;;;19.40;82.40;;;;;;5052458;28;20057;-82
2023/06/13 06:10:57;;;;;;;7.78;2.95;;;19.60;83.50;;;;;;5051678;28;20084;-87
2023/06/13 06:13:44;;;;;;;6.18;2.33;;;19.80;83.60;;;;;;5412808;23;20445;-88
2023/06/13 06:16:30;;;;;;;7.53;3.03;;;20.00;83.80;;;;;;5050923;28;20088;-83
2023/06/13 06:19:16;;;;;;;6.28;2.38;;;20.10;82.30;;;;;;5033915;28;20057;-84
2023/06/13 06:22:03;;;;;;;5.60;2.65;;;20.20;83.30;;;;;;5033637;28;20565;-81
2023/06/13 06:24:49;;;;;;;7.32;2.92;;;20.30;83.50;;;;;;5034499;28;20438;-84
2023/06/13 06:27:35;;;;;;;6.22;2.53;;;20.40;83.60;;;;;;5051366;28;20140;-81
2023/06/13 06:30:21;;;;;;;7.28;2.83;;;20.60;84.60;;;;;;5052231;28;20534;-86
2023/06/13 06:33:07;;;;;;;6.03;2.58;;;20.70;86.00;;;;;;5051116;28;20092;-81
2023/06/13 06:35:53;;;;;;;8.65;2.80;;;20.90;88.20;;;;;;5051362;28;20136;-81
2023/06/13 06:38:40;;;;;;;5.65;2.47;;;21.10;88.90;;;;;;5051537;28;20556;-83
2023/06/13 06:41:26;;;;;;;7.97;2.28;;;21.20;89.40;;;;;;5032620;28;20083;-82
2023/06/13 06:44:12;;;;;;;7.95;2.60;;;21.20;89.00;;;;;;5033939;28;20068;-86
2023/06/13 06:46:58;;;;;;;5.32;2.42;;;21.30;88.30;;;;;;5051064;28;20048;-89
2023/06/13 06:49:45;;;;;;;8.65;2.28;;;21.30;88.00;;;;;;5050277;28;20056;-81
2023/06/13 06:52:31;;;;;;;10.20;2.83;;;21.50;88.30;;;;;;5050287;28;20052;-81
2023/06/13 06:55:17;;;;;;;6.75;2.38;;;21.70;88.70;;;;;;5049951;28;20152;-86
2023/06/13 06:58:03;;;;;;;6.15;2.58;;;21.80;89.20;;;;;;5036333;28;20316;-82
2023/06/13 07:00:49;;;;;;;4.28;2.30;;;21.90;89.90;;;;;;5050867;28;20516;-81
2023/06/13 07:03:35;;;;;;;7.50;2.70;;;22.10;89.70;;;;;;5050269;28;20158;-87
2023/06/13 07:06:22;;;;;;;7.72;2.28;;;22.10;89.80;;;;;;5050386;28;20136;-88
2023/06/13 07:09:10;;;;;;;5.32;2.63;;;22.20;89.40;;;;;;5049965;28;20045;-82
2023/06/13 07:11:57;;;;;;;9.93;2.42;;;22.40;90.10;;;;;;5035193;28;20056;-81
2023/06/13 07:14:43;;;;;;;5.43;2.22;;;22.50;90.30;;;;;;5030381;28;20053;-85
2023/06/13 07:17:30;;;;;;;6.28;2.28;;;22.60;90.30;;;;;;5030003;28;20136;-80
2023/06/13 07:20:17;;;;;;;4.15;2.05;;;22.70;89.80;;;;;;5014715;28;20057;-82
2023/06/13 07:23:05;;;;;;;7.88;2.45;;;22.80;89.40;;;;;;5030658;28;20085;-82
2023/06/13 07:25:51;;;;;;;7.20;2.45;;;22.90;89.20;;;;;;5030989;28;20049;-81
2023/06/13 07:28:37;;;;;;;7.28;2.30;;;22.90;88.70;;;;;;5012784;28;20053;-81
2023/06/13 07:31:23;;;;;;;6.45;2.50;;;23.00;87.70;;;;;;5030727;28;20045;-87
2023/06/13 07:34:09;;;;;;;5.20;2.50;;;23.00;88.00;;;;;;5029763;28;20106;-80
2023/06/13 07:36:56;;;;;;;5.68;2.63;;;23.20;88.30;;;;;;5016488;28;20056;-80
2023/06/13 07:39:42;;;;;;;6.50;2.33;;;23.30;87.80;;;;;;5029982;28;20088;-82
2023/06/13 07:42:28;;;;;;;7.18;2.60;;;23.50;88.50;;;;;;5030026;28;20041;-84
2023/06/13 07:45:14;;;;;;;9.98;2.72;;;23.60;88.10;;;;;;5013131;28;20509;-82
2023/06/13 07:48:01;;;;;;;10.98;3.25;;;23.70;88.70;;;;;;5030189;28;20056;-85
2023/06/13 07:50:47;;;;;;;4.85;2.20;;;23.80;87.90;;;;;;5029670;28;20128;-80
2023/06/13 07:53:33;;;;;;;5.18;2.40;;;24.00;88.40;;;;;;5030293;28;20052;-82
2023/06/13 07:56:19;;;;;;;5.10;2.22;;;24.00;87.10;;;;;;5028932;28;20064;-82
2023/06/13 07:59:06;;;;;;;4.55;2.08;;;24.10;87.10;;;;;;5016119;28;20472;-88
2023/06/13 08:01:52;;;;;;;6.28;2.40;;;24.30;86.60;;;;;;5012884;28;20075;-85
2023/06/13 08:04:38;;;;;;;7.00;2.30;;;24.40;85.70;;;;;;5029763;28;20051;-85
2023/06/13 08:07:25;;;;;;;5.43;2.17;;;24.60;85.60;;;;;;5028723;28;20057;-88
2023/06/13 08:10:11;;;;;;;5.53;2.45;;;24.70;85.80;;;;;;5012656;28;20063;-83
2023/06/13 08:12:59;;;;;;;4.18;1.95;;;24.90;85.30;;;;;;5029231;28;20491;-80
2023/06/13 08:15:45;;;;;;;6.20;1.90;;;24.90;84.80;;;;;;5028557;28;20049;-81
2023/06/13 08:18:31;;;;;;;6.93;2.33;;;25.10;85.50;;;;;;5030663;28;20443;-82
2023/06/13 08:21:17;;;;;;;5.25;1.92;;;25.20;84.30;;;;;;5030754;28;20054;-80
2023/06/13 08:24:03;;;;;;;10.88;2.50;;;25.10;84.50;;;;;;5030296;28;20088;-81
2023/06/13 08:26:50;;;;;;;7.75;1.70;;;25.00;84.80;;;;;;5038180;28;20045;-84
2023/06/13 08:29:36;;;;;;;7.65;2.60;;;25.10;84.70;;;;;;5038481;28;20068;-80
2023/06/13 08:32:24;;;;;;;6.15;2.17;;;25.00;85.00;;;;;;5033220;28;20049;-79
2023/06/13 08:35:10;;;;;;;7.15;2.10;;;25.10;85.40;;;;;;5030512;28;20057;-79
2023/06/13 08:37:57;;;;;;;6.65;1.98;;;25.30;84.90;;;;;;5028839;28;20049;-79
2023/06/13 08:40:43;;;;;;;9.80;2.25;;;25.50;84.40;;;;;;5028622;28;20050;-87
2023/06/13 08:43:31;;;;;;;7.35;2.45;;;25.50;84.40;;;;;;5030175;28;20052;-80
2023/06/13 08:46:17;;;;;;;7.95;2.17;;;25.60;85.10;;;;;;5012026;28;20063;-82
2023/06/13 08:49:03;;;;;;;7.72;2.28;;;25.60;85.30;;;;;;5029811;28;20053;-84
2023/06/13 08:51:52;;;;;;;7.13;2.42;;;25.60;85.60;;;;;;5011800;28;20057;-83
2023/06/13 08:54:42;;;;;;;8.40;2.38;;;25.60;85.60;;;;;;5029677;28;20053;-82
2023/06/13 08:57:31;;;;;;;7.35;2.65;;;25.70;85.20;;;;;;5023115;28;20060;-83
2023/06/13 09:00:17;;;;;;;8.00;2.10;;;25.80;85.10;;;;;;5028661;28;20084;-79
2023/06/13 09:03:06;;;;;;;4.82;2.00;;;25.90;85.20;;;;;;5011489;28;20049;-78
2023/06/13 09:05:52;;;;;;;5.90;2.08;;;26.00;84.90;;;;;;5029364;28;20049;-79
2023/06/13 09:08:39;;;;;;;9.15;2.42;;;26.00;83.90;;;;;;5029511;28;20089;-78
2023/06/13 09:11:28;;;;;;;4.65;2.13;;;26.00;82.30;;;;;;5029262;28;20534;-79
2023/06/13 09:14:15;;;;;;;6.80;1.75;;;26.00;82.00;;;;;;5011600;28;20072;-79
2023/06/13 09:17:01;;;;;;;9.73;1.58;;;26.10;82.80;;;;;;5028674;28;20069;-79
2023/06/13 09:19:47;;;;;;;12.38;2.70;;;26.20;82.80;;;;;;5029122;28;20496;-81
2023/06/13 09:22:35;;;;;;;9.20;2.03;;;26.40;83.00;;;;;;5029889;28;20057;-86
2023/06/13 09:25:22;;;;;;;12.48;2.97;;;26.50;83.30;;;;;;5028537;28;20070;-79
2023/06/13 09:28:30;;;;;;;9.57;2.33;;;26.60;83.30;;;;;;5011362;28;20445;-79
2023/06/13 09:31:16;;;;;;;7.22;2.00;;;26.70;82.50;;;;;;5029612;28;20049;-81
2023/06/13 09:34:02;;;;;;;12.98;2.05;;;26.80;81.30;;;;;;5029392;28;20045;-85
2023/06/13 09:36:48;;;;;;;11.00;3.10;;;26.70;82.00;;;;;;5028733;28;20136;-82
2023/06/13 09:39:45;;;;;;;6.75;1.80;;;26.80;82.30;;;;;;5017613;28;20060;-78
2023/06/13 09:42:31;;;;;;;7.75;1.50;;;27.00;81.80;;;;;;5031636;28;20111;-82
2023/06/13 09:45:20;;;;;;;12.48;2.10;;;27.20;82.10;;;;;;5015345;28;20480;-84
2023/06/13 09:48:06;;;;;;;10.48;3.10;;;27.30;82.90;;;;;;5035272;28;20049;-85
2023/06/13 09:50:53;;;;;;;10.98;2.15;;;27.40;84.20;;;;;;5033401;28;20049;-81
2023/06/13 09:53:43;;;;;;;13.65;2.85;;;27.50;84.40;;;;;;5032531;28;20049;-80
2023/06/13 09:56:29;;;;;;;11.65;2.38;;;27.50;84.50;;;;;;5031845;28;20136;-80
2023/06/13 09:59:19;;;;;;;10.77;2.50;;;27.70;84.70;;;;;;5032694;28;20057;-80
2023/06/13 10:02:06;;;;;;;11.32;2.15;;;27.80;84.40;;;;;;5031700;28;20041;-77
2023/06/13 10:04:55;;;;;;;13.18;1.85;;;27.80;83.80;;;;;;5032322;28;20045;-78
2023/06/13 10:07:41;;;;;;;9.98;2.05;;;27.80;84.60;;;;;;5032610;28;20049;-77
2023/06/13 10:10:27;;;;;;;8.93;2.17;;;27.80;83.20;;;;;;5030236;28;20061;-80
2023/06/13 10:13:18;;;;;;;9.20;2.55;;;27.40;83.50;;;;;;5032231;28;20053;-79
2023/06/13 10:16:06;;;;;;;12.70;2.42;;;27.50;83.90;;;;;;5018986;28;20401;-83
2023/06/13 10:18:53;;;;;;;10.32;2.03;;;27.70;84.50;;;;;;5014496;28;20058;-78
2023/06/13 10:21:39;;;;;;;14.50;2.40;;;27.70;84.10;;;;;;5032582;28;20045;-84
2023/06/13 10:24:26;;;;;;;11.88;2.70;;;27.70;83.30;;;;;;5025539;28;20053;-78
2023/06/13 10:27:14;;;;;;;11.88;2.75;;;27.60;82.00;;;;;;5031787;28;20049;-77
2023/06/13 10:30:23;;;;;;;15.68;2.35;;;27.60;82.00;;;;;;5014113;28;20045;-78
2023/06/13 10:33:31;;;;;;;12.35;2.03;;;27.70;81.50;;;;;;5031228;28;20100;-82
2023/06/13 10:36:31;;;;;;;10.75;2.20;;;28.00;81.10;;;;;;5031104;28;20057;-76
2023/06/13 10:39:26;;;;;;;10.50;2.45;;;28.10;79.50;;;;;;5030176;28;20587;-83
2023/06/13 10:42:27;;;;;;;6.40;2.03;;;28.20;80.20;;;;;;5013192;28;20133;-83
2023/06/13 10:45:21;;;;;;;10.85;2.05;;;28.20;78.90;;;;;;5000297;28;20084;-79
2023/06/13 10:48:08;;;;;;;9.05;2.00;;;28.40;78.50;;;;;;5030637;28;20463;-77
2023/06/13 10:50:56;;;;;;;11.98;2.88;;;28.30;77.90;;;;;;5030800;28;20053;-82
2023/06/13 10:53:42;;;;;;;13.60;2.20;;;28.10;76.80;;;;;;5030217;28;20423;-79
2023/06/13 10:56:31;;;;;;;10.00;1.92;;;28.10;77.60;;;;;;5013427;28;20429;-76
2023/06/13 10:59:17;;;;;;;11.52;1.77;;;27.90;75.60;;;;;;5013089;28;20058;-76
2023/06/13 11:02:05;;;;;;;10.15;2.35;;;28.20;76.60;;;;;;5012861;28;20050;-82
2023/06/13 11:04:52;;;;;;;6.40;1.80;;;28.20;75.30;;;;;;5031218;28;20520;-78
2023/06/13 11:07:46;;;;;;;7.10;1.88;;;28.10;74.80;;;;;;5013739;28;20053;-77
2023/06/13 11:10:35;;;;;;;6.90;1.53;;;27.90;73.90;;;;;;5031020;28;20111;-77
2023/06/13 11:13:24;;;;;;;7.07;2.20;;;28.20;74.60;;;;;;5017170;28;20061;-77
2023/06/13 11:16:35;;;;;;;9.65;1.65;;;28.20;74.00;;;;;;5031916;28;20064;-82
2023/06/13 11:19:29;;;;;;;15.90;2.63;;;28.50;75.10;;;;;;5013704;28;20076;-82
2023/06/13 11:22:15;;;;;;;8.48;2.05;;;28.50;74.00;;;;;;5030843;28;20057;-86
2023/06/13 11:25:02;;;;;;;10.95;2.28;;;28.80;73.30;;;;;;5031072;28;20077;-79
2023/06/13 11:27:48;;;;;;;13.90;2.78;;;28.80;72.50;;;;;;5014824;28;20053;-80
2023/06/13 11:30:34;;;;;;;9.32;2.13;;;28.60;71.90;;;;;;5030503;28;20096;-78
2023/06/13 11:33:23;;;;;;;13.95;1.92;;;28.80;72.30;;;;;;5029627;28;20057;-84
2023/06/13 11:36:10;;;;;;;11.35;2.13;;;28.80;72.40;;;;;;5013258;28;20072;-77
2023/06/13 11:39:10;;;;;;;13.02;2.67;;;28.60;72.60;;;;;;5029494;28;20417;-81
2023/06/13 11:41:57;;;;;;;13.05;2.33;;;28.90;72.70;;;;;;5029965;28;20052;-77
2023/06/13 11:44:43;;;;;;;12.75;2.35;;;28.70;72.20;;;;;;5029838;28;20057;-78
2023/06/13 11:47:29;;;;;;;9.88;2.13;;;28.70;72.50;;;;;;5030218;28;20069;-76
2023/06/13 11:50:25;;;;;;;10.38;2.30;;;28.60;72.10;;;;;;5029649;28;20409;-77
2023/06/13 11:53:11;;;;;;;23.20;2.55;;;28.70;72.70;;;;;;5029258;28;20084;-77
2023/06/13 11:56:06;;;;;;;7.57;1.70;;;28.80;72.70;;;;;;5011778;28;20394;-80
2023/06/13 11:58:54;;;;;;;8.23;2.35;;;29.10;73.00;;;;;;5029415;28;20148;-83
2023/06/13 12:01:40;;;;;;;10.60;2.30;;;29.10;72.90;;;;;;5011393;28;20065;-81
2023/06/13 12:04:29;;;;;;;11.00;2.45;;;29.50;72.90;;;;;;5032142;28;20085;-83
2023/06/13 12:07:15;;;;;;;11.85;2.17;;;29.40;72.10;;;;;;5030198;28;20045;-79
2023/06/13 12:10:01;;;;;;;10.05;2.38;;;29.40;72.00;;;;;;5029384;28;20062;-77
2023/06/13 12:12:57;;;;;;;9.75;2.20;;;29.50;72.10;;;;;;5028987;28;20456;-78
2023/06/13 12:15:44;;;;;;;11.18;2.30;;;29.00;71.20;;;;;;5029292;28;20060;-81
2023/06/13 12:18:30;;;;;;;9.00;1.90;;;29.30;72.40;;;;;;5011821;28;20136;-84
2023/06/13 12:21:17;;;;;;;14.02;2.55;;;29.40;72.50;;;;;;5030169;28;20099;-77
2023/06/13 12:24:06;;;;;;;10.40;2.63;;;29.40;72.40;;;;;;5029991;28;20053;-80
2023/06/13 12:26:52;;;;;;;7.88;2.55;;;29.50;71.50;;;;;;5028602;28;20107;-82
2023/06/13 12:29:39;;;;;;;8.30;1.73;;;29.50;71.60;;;;;;5012491;28;20053;-85
2023/06/13 12:32:25;;;;;;;13.38;2.50;;;29.30;71.30;;;;;;5029119;28;20049;-77
2023/06/13 12:35:12;;;;;;;9.88;2.13;;;29.40;71.90;;;;;;5014939;28;20064;-82
2023/06/13 12:38:02;;;;;;;15.00;2.13;;;29.30;71.50;;;;;;5028836;28;20041;-80
2023/06/13 12:40:51;;;;;;;19.58;3.15;;;30.00;73.00;;;;;;4999540;28;20057;-79
2023/06/13 12:43:42;;;;;;;7.90;2.15;;;30.20;71.10;;;;;;5029332;28;20414;-79
2023/06/13 12:46:28;;;;;;;10.00;2.13;;;30.10;71.30;;;;;;5028724;28;20429;-78
2023/06/13 12:49:15;;;;;;;10.52;2.13;;;30.20;70.70;;;;;;5029254;28;20056;-85
2023/06/13 12:52:01;;;;;;;8.57;2.58;;;30.20;70.50;;;;;;5028563;28;20057;-77
2023/06/13 12:54:47;;;;;;;9.98;2.33;;;30.00;70.20;;;;;;5028469;28;20084;-79
2023/06/13 12:57:33;;;;;;;9.70;2.50;;;30.00;70.40;;;;;;5010827;28;20085;-82
2023/06/13 13:00:20;;;;;;;11.25;2.88;;;29.80;70.10;;;;;;5029428;28;20468;-78
2023/06/13 13:03:06;;;;;;;17.98;2.85;;;29.90;70.10;;;;;;5029470;28;20052;-81
2023/06/13 13:05:53;;;;;;;12.07;2.35;;;30.20;71.00;;;;;;5029344;28;20046;-79
2023/06/13 13:08:39;;;;;;;13.55;2.33;;;30.40;71.10;;;;;;5028813;28;20501;-83
2023/06/13 13:11:26;;;;;;;10.93;2.13;;;30.80;70.30;;;;;;5029245;28;20076;-84
2023/06/13 13:14:12;;;;;;;8.88;2.03;;;31.00;70.00;;;;;;5013270;28;20060;-83
2023/06/13 13:16:58;;;;;;;10.10;2.20;;;31.30;69.20;;;;;;5015634;28;20053;-79
2023/06/13 13:19:45;;;;;;;12.32;2.50;;;31.30;68.60;;;;;;5034274;28;20085;-79
2023/06/13 13:22:31;;;;;;;10.65;2.35;;;31.70;68.10;;;;;;5034410;28;20055;-86
2023/06/13 13:25:17;;;;;;;9.65;2.35;;;31.00;67.60;;;;;;5026225;28;20386;-75
2023/06/13 13:28:05;;;;;;;11.52;2.17;;;31.30;68.30;;;;;;5032272;28;20057;-77
2023/06/13 13:30:51;;;;;;;11.35;2.28;;;31.30;68.10;;;;;;5016491;28;20062;-78
2023/06/13 13:33:37;;;;;;;7.88;2.10;;;31.20;68.10;;;;;;5033150;28;20477;-76
2023/06/13 13:36:23;;;;;;;8.43;2.05;;;31.00;67.90;;;;;;5034197;28;20049;-77
2023/06/13 13:39:10;;;;;;;7.70;2.28;;;31.50;68.20;;;;;;5033223;28;20130;-75
2023/06/13 13:41:56;;;;;;;9.25;1.70;;;31.50;66.80;;;;;;5033266;28;20061;-75
2023/06/13 13:44:43;;;;;;;12.32;2.20;;;31.70;67.90;;;;;;5033120;28;20045;-77
2023/06/13 13:47:29;;;;;;;11.02;2.22;;;32.10;67.20;;;;;;5033027;28;20416;-75
2023/06/13 13:50:16;;;;;;;8.20;1.83;;;31.80;65.90;;;;;;5032448;28;20045;-79
2023/06/13 13:53:02;;;;;;;10.65;2.00;;;31.60;66.80;;;;;;5015255;28;20053;-78
2023/06/13 13:55:48;;;;;;;9.93;2.63;;;31.70;66.90;;;;;;5014935;28;20063;-83
2023/06/13 13:58:34;;;;;;;8.95;2.40;;;31.70;66.40;;;;;;5033806;28;20116;-78
2023/06/13 14:01:20;;;;;;;13.43;2.58;;;32.00;65.90;;;;;;5016150;28;20057;-81
2023/06/13 14:04:06;;;;;;;7.50;2.63;;;32.00;65.80;;;;;;5033033;28;20049;-82
2023/06/13 14:06:52;;;;;;;10.75;2.50;;;32.20;65.50;;;;;;5014293;28;20500;-81
2023/06/13 14:09:38;;;;;;;11.38;2.67;;;32.40;65.20;;;;;;5032115;28;20054;-81
2023/06/13 14:12:25;;;;;;;6.68;2.28;;;32.10;64.60;;;;;;5031647;28;20455;-81
2023/06/13 14:15:11;;;;;;;11.95;2.47;;;32.10;65.10;;;;;;5031817;28;20065;-88
2023/06/13 14:17:57;;;;;;;10.00;2.30;;;32.10;65.10;;;;;;5033073;28;20049;-85
2023/06/13 14:20:43;;;;;;;10.50;2.10;;;33.00;65.10;;;;;;5033945;28;20045;-79
2023/06/13 14:23:29;;;;;;;5.72;1.67;;;33.30;64.00;;;;;;5021536;28;20493;-80
2023/06/13 14:26:15;;;;;;;14.65;2.13;;;33.10;63.80;;;;;;5033376;28;20057;-82
2023/06/13 14:29:01;;;;;;;14.27;2.65;;;33.50;64.20;;;;;;5032939;28;20148;-77